Time;durP1;ratioP1;P1;durP2;ratioP2;P2;SDS_P1;SDS_P2;PMS_P1;PMS_P2;Temp;Humidity;BMP_temperature;BMP_pressure;BME280_temperature;BME280_humidity;BME280_pressure;Samples;Min_cycle;Max_cycle;Signal;HPM_P1;HPM_P2
2023/04/01 00:01:43;;;;;;;5.35;3.22;;;7.40;99.90;;;;;;4993519;28;20082;-93
2023/04/01 00:04:08;;;;;;;9.88;3.50;;;7.30;99.90;;;;;;5003802;28;20097;-92
2023/04/01 00:06:34;;;;;;;7.43;3.67;;;7.30;99.90;;;;;;5020182;28;20022;-94
2023/04/01 00:09:01;;;;;;;6.07;3.17;;;7.30;99.90;;;;;;4995597;28;20022;-95
2023/04/01 00:11:27;;;;;;;6.50;3.15;;;7.20;99.90;;;;;;5000254;28;20087;-95
2023/04/01 00:13:53;;;;;;;4.82;3.03;;;7.20;99.90;;;;;;4993434;28;20023;-94
2023/04/01 00:16:20;;;;;;;7.03;3.05;;;7.20;99.90;;;;;;4992402;28;20011;-95
2023/04/01 00:18:47;;;;;;;5.13;2.70;;;7.20;99.90;;;;;;4984950;28;20056;-95
2023/04/01 00:21:13;;;;;;;5.43;2.65;;;7.20;99.90;;;;;;4990524;28;20051;-94
2023/04/01 00:23:39;;;;;;;6.30;2.60;;;7.20;99.90;;;;;;4983721;28;20046;-94
2023/04/01 00:26:06;;;;;;;5.95;2.85;;;7.10;99.90;;;;;;4984813;28;20048;-95
2023/04/01 00:28:35;;;;;;;7.20;2.85;;;7.10;99.90;;;;;;4984124;28;20050;-95
2023/04/01 00:31:06;;;;;;;6.17;2.57;;;7.10;99.90;;;;;;4982380;28;20071;-94
2023/04/01 00:33:32;;;;;;;;;;;7.10;99.90;;;;;;4989785;28;20078;-94
2023/04/01 00:36:15;;;;;;;6.53;2.65;;;7.10;99.90;;;;;;4989359;28;19910;-95
2023/04/01 00:38:42;;;;;;;4.28;2.67;;;7.10;99.90;;;;;;4964059;28;20067;-95
2023/04/01 00:41:10;;;;;;;5.93;2.38;;;7.10;99.90;;;;;;4985141;28;20023;-95
2023/04/01 00:43:36;;;;;;;9.35;4.30;;;7.10;99.90;;;;;;4983968;28;20090;-94
2023/04/01 00:46:02;;;;;;;5.63;3.33;;;7.10;99.90;;;;;;4957183;28;21140;-94
2023/04/01 00:48:34;;;;;;;5.07;3.10;;;7.10;99.90;;;;;;4979547;28;20026;-95
2023/04/01 00:51:15;;;;;;;7.38;3.10;;;7.10;99.90;;;;;;4980795;28;20485;-95
2023/04/01 00:53:50;;;;;;;4.43;2.53;;;7.10;99.90;;;;;;4978236;28;20493;-94
2023/04/01 00:56:22;;;;;;;5.03;2.30;;;7.10;99.90;;;;;;4980347;28;20033;-94
2023/04/01 00:58:54;;;;;;;5.15;2.97;;;7.10;99.90;;;;;;4965045;29;20035;-94
2023/04/01 01:01:22;;;;;;;4.65;3.38;;;7.10;99.90;;;;;;4964624;28;20023;-94
2023/04/01 01:03:49;;;;;;;6.35;3.17;;;7.00;99.90;;;;;;4995480;28;20038;-93
2023/04/01 01:06:33;;;;;;;4.53;2.75;;;7.00;99.90;;;;;;4981183;28;20110;-95
2023/04/01 01:08:58;;;;;;;7.07;3.20;;;7.10;99.90;;;;;;4987743;28;20049;-95
2023/04/01 01:11:36;;;;;;;5.03;2.72;;;7.00;99.90;;;;;;4975274;28;20126;-96
2023/04/01 01:14:27;;;;;;;5.32;2.85;;;7.00;99.90;;;;;;4956639;28;20039;-94
2023/04/01 01:17:01;;;;;;;8.52;4.00;;;7.00;99.90;;;;;;4983283;28;20090;-94
2023/04/01 01:20:06;;;;;;;7.50;3.45;;;7.00;99.90;;;;;;4981470;28;20023;-95
2023/04/01 01:22:37;;;;;;;6.82;3.17;;;7.00;99.90;;;;;;4981711;28;20023;-94
2023/04/01 01:25:34;;;;;;;6.07;3.60;;;7.00;99.90;;;;;;4980345;28;20031;-94
2023/04/01 01:28:17;;;;;;;6.75;3.90;;;7.00;99.90;;;;;;4977985;28;20065;-94
2023/04/01 01:31:10;;;;;;;6.40;3.00;;;7.00;99.90;;;;;;4960248;28;20033;-94
2023/04/01 01:33:48;;;;;;;4.60;2.95;;;7.00;99.90;;;;;;4939020;28;20038;-95
2023/04/01 01:36:16;;;;;;;4.28;3.03;;;7.00;99.90;;;;;;4975763;28;20026;-94
2023/04/01 01:38:43;;;;;;;6.75;3.28;;;6.90;99.90;;;;;;4979453;28;20034;-94
2023/04/01 01:41:10;;;;;;;4.32;2.85;;;7.00;99.90;;;;;;4972526;28;20027;-96
2023/04/01 01:43:41;;;;;;;5.47;3.25;;;7.00;99.90;;;;;;4974208;28;20113;-94
2023/04/01 01:46:13;;;;;;;4.32;2.97;;;7.00;99.90;;;;;;4969510;28;20052;-93
2023/04/01 01:48:41;;;;;;;5.28;3.33;;;6.90;99.90;;;;;;4972220;28;20058;-94
2023/04/01 01:51:07;;;;;;;6.35;3.58;;;6.90;99.90;;;;;;4972960;28;20042;-94
2023/04/01 01:53:33;;;;;;;5.22;3.20;;;6.90;99.90;;;;;;4978234;28;20035;-94
2023/04/01 01:55:59;;;;;;;5.10;3.03;;;6.90;99.90;;;;;;4959717;28;20042;-95
2023/04/01 01:58:49;;;;;;;8.80;3.50;;;6.90;99.90;;;;;;4962901;28;20017;-95
2023/04/01 02:01:27;;;;;;;9.00;4.63;;;6.80;99.90;;;;;;4986832;28;20456;-95
2023/04/01 02:03:55;;;;;;;9.38;4.18;;;6.80;99.90;;;;;;4986227;28;20536;-95
2023/04/01 02:06:28;;;;;;;9.38;3.60;;;6.80;99.90;;;;;;4986994;28;20090;-93
2023/04/01 02:09:07;;;;;;;7.75;3.80;;;6.80;99.90;;;;;;4987499;28;20086;-93
2023/04/01 02:11:48;;;;;;;11.27;4.05;;;6.80;99.90;;;;;;4978742;28;20130;-96
2023/04/01 02:14:17;;;;;;;8.20;4.30;;;6.80;99.90;;;;;;4958773;28;20034;-93
2023/04/01 02:16:57;;;;;;;5.65;3.45;;;6.80;99.90;;;;;;4963204;28;20039;-93
2023/04/01 02:19:44;;;;;;;4.55;3.38;;;6.80;99.90;;;;;;4985806;28;20027;-94
2023/04/01 02:22:16;;;;;;;6.38;3.25;;;6.80;99.90;;;;;;4986804;28;20030;-95
2023/04/01 02:24:43;;;;;;;7.18;3.28;;;6.80;99.90;;;;;;4988907;28;20038;-96
2023/04/01 02:27:11;;;;;;;6.93;3.03;;;6.70;99.90;;;;;;4972500;28;20046;-95
2023/04/01 02:29:36;;;;;;;4.57;3.25;;;6.70;99.90;;;;;;4989929;28;20027;-95
2023/04/01 02:32:03;;;;;;;6.13;3.35;;;6.70;99.90;;;;;;4990965;28;20037;-92
2023/04/01 02:34:29;;;;;;;6.68;3.70;;;6.70;99.90;;;;;;4991336;28;20564;-93
2023/04/01 02:36:57;;;;;;;5.00;3.30;;;6.70;99.90;;;;;;4985491;28;20054;-94
2023/04/01 02:39:22;;;;;;;7.72;3.65;;;6.70;99.90;;;;;;4978461;28;20110;-94
2023/04/01 02:41:49;;;;;;;8.05;3.38;;;6.70;99.90;;;;;;4985206;28;20042;-93
2023/04/01 02:44:16;;;;;;;7.60;3.50;;;6.70;99.90;;;;;;4987863;28;20031;-94
2023/04/01 02:46:43;;;;;;;5.88;3.50;;;6.60;99.90;;;;;;4977925;28;20030;-94
2023/04/01 02:49:08;;;;;;;6.50;3.47;;;6.60;99.90;;;;;;4959035;28;20058;-93
2023/04/01 02:51:34;;;;;;;7.97;3.63;;;6.60;99.90;;;;;;4956202;28;20023;-94
2023/04/01 02:54:00;;;;;;;11.10;3.72;;;6.60;99.90;;;;;;4972179;28;20070;-94
2023/04/01 02:56:26;;;;;;;8.45;3.78;;;6.60;99.90;;;;;;4975203;28;20026;-95
2023/04/01 02:58:53;;;;;;;7.55;3.70;;;6.50;99.90;;;;;;4970206;28;20060;-94
2023/04/01 03:01:20;;;;;;;10.07;4.03;;;6.50;99.90;;;;;;4979624;28;20102;-93
2023/04/01 03:03:45;;;;;;;8.65;3.80;;;6.50;99.90;;;;;;4978982;28;20058;-93
2023/04/01 03:06:13;;;;;;;8.35;3.85;;;6.50;99.90;;;;;;4964325;28;20031;-94
2023/04/01 03:08:39;;;;;;;9.15;4.20;;;6.50;99.90;;;;;;4978230;28;20030;-94
2023/04/01 03:11:05;;;;;;;5.45;3.40;;;6.50;99.90;;;;;;4976725;28;20043;-93
2023/04/01 03:13:31;;;;;;;6.53;3.60;;;6.40;99.90;;;;;;4972643;28;20059;-94
2023/04/01 03:15:57;;;;;;;6.35;2.65;;;6.40;99.90;;;;;;4978973;28;20397;-93
2023/04/01 03:18:23;;;;;;;8.43;3.03;;;6.40;99.90;;;;;;4968910;28;20041;-92
2023/04/01 03:20:49;;;;;;;8.00;3.22;;;6.40;99.90;;;;;;4954360;28;20035;-94
2023/04/01 03:23:17;;;;;;;4.20;2.78;;;6.40;99.90;;;;;;4970816;28;20026;-92
2023/04/01 03:25:43;;;;;;;6.93;2.83;;;6.30;99.90;;;;;;4987457;28;20062;-96
2023/04/01 03:28:09;;;;;;;8.95;2.90;;;6.30;99.90;;;;;;4990621;28;20030;-95
2023/04/01 03:30:34;;;;;;;9.48;3.10;;;6.30;99.90;;;;;;4970408;28;20030;-94
2023/04/01 03:33:01;;;;;;;8.00;3.42;;;6.30;99.90;;;;;;4961169;28;20047;-94
2023/04/01 03:35:27;;;;;;;9.27;3.42;;;6.30;99.90;;;;;;4961213;28;20027;-95
2023/04/01 03:37:53;;;;;;;6.78;3.20;;;6.30;99.90;;;;;;4959948;28;20035;-94
2023/04/01 03:40:20;;;;;;;10.25;4.03;;;6.30;99.90;;;;;;4944809;29;20388;-94
2023/04/01 03:42:46;;;;;;;9.40;3.58;;;6.30;99.90;;;;;;4970189;28;20026;-94
2023/04/01 03:45:12;;;;;;;9.07;4.88;;;6.30;99.90;;;;;;4977276;28;20032;-94
2023/04/01 03:47:38;;;;;;;9.45;4.03;;;6.30;99.90;;;;;;4965552;28;20033;-94
2023/04/01 03:50:05;;;;;;;13.10;3.72;;;6.30;99.90;;;;;;4963107;28;20054;-94
2023/04/01 03:52:31;;;;;;;8.70;3.30;;;6.20;99.90;;;;;;4967745;28;20037;-94
2023/04/01 03:54:57;;;;;;;6.25;2.78;;;6.20;99.90;;;;;;4966666;28;20019;-95
2023/04/01 03:57:23;;;;;;;6.18;2.53;;;6.20;99.90;;;;;;4965333;28;20038;-94
2023/04/01 03:59:48;;;;;;;7.53;3.05;;;6.20;99.90;;;;;;4981508;28;20098;-94
2023/04/01 04:02:14;;;;;;;8.18;2.97;;;6.20;99.90;;;;;;4967734;28;20091;-94
2023/04/01 04:04:40;;;;;;;9.95;3.17;;;6.20;99.90;;;;;;4966119;28;20026;-94
2023/04/01 04:07:07;;;;;;;7.65;3.25;;;6.20;99.90;;;;;;4998413;28;20055;-92
2023/04/01 04:09:33;;;;;;;7.72;4.05;;;6.20;99.90;;;;;;5000302;28;20059;-94
2023/04/01 04:12:00;;;;;;;6.97;2.63;;;6.20;99.90;;;;;;5006088;28;20038;-94
2023/04/01 04:14:26;;;;;;;5.18;2.28;;;6.20;99.90;;;;;;5002024;28;21297;-95
2023/04/01 04:16:52;;;;;;;3.13;1.75;;;6.20;99.90;;;;;;5002239;28;20033;-94
2023/04/01 04:19:18;;;;;;;5.10;2.28;;;6.10;99.90;;;;;;4998145;28;20060;-95
2023/04/01 04:21:44;;;;;;;3.30;1.65;;;6.10;99.90;;;;;;4999397;28;20025;-95
2023/04/01 04:24:10;;;;;;;3.60;1.60;;;6.10;99.90;;;;;;4999570;28;20117;-93
2023/04/01 04:26:36;;;;;;;3.60;1.33;;;6.10;99.90;;;;;;4982090;28;20030;-94
2023/04/01 04:29:02;;;;;;;1.67;1.30;;;6.10;99.90;;;;;;4979828;28;20039;-93
2023/04/01 04:31:28;;;;;;;4.22;1.40;;;6.10;99.90;;;;;;4963489;28;20472;-96
2023/04/01 04:33:54;;;;;;;1.52;1.25;;;6.10;99.90;;;;;;4980166;28;20034;-95
2023/04/01 04:36:21;;;;;;;1.65;1.20;;;6.00;99.90;;;;;;4981007;28;20568;-94
2023/04/01 04:38:47;;;;;;;6.00;1.42;;;6.00;99.90;;;;;;4997032;28;20056;-94
2023/04/01 04:41:17;;;;;;;3.78;1.58;;;6.00;99.90;;;;;;5018031;28;20038;-94
2023/04/01 04:43:52;;;;;;;3.33;1.60;;;6.00;99.90;;;;;;5003453;28;20105;-94
2023/04/01 04:46:18;;;;;;;3.88;2.00;;;5.90;99.90;;;;;;5002186;28;20032;-95
2023/04/01 04:48:44;;;;;;;2.65;1.65;;;5.90;99.90;;;;;;5000941;28;20448;-94
2023/04/01 04:51:17;;;;;;;3.90;1.70;;;5.90;99.90;;;;;;5000706;28;20101;-95
2023/04/01 04:53:43;;;;;;;3.80;2.00;;;5.90;99.90;;;;;;5002112;28;20033;-93
2023/04/01 04:56:09;;;;;;;4.53;2.20;;;5.90;99.90;;;;;;5005699;28;20052;-93
2023/04/01 04:58:35;;;;;;;4.00;2.65;;;5.80;99.90;;;;;;5009377;28;20100;-95
2023/04/01 05:01:13;;;;;;;6.38;2.20;;;5.80;99.90;;;;;;5002074;28;20053;-95
2023/04/01 05:03:38;;;;;;;7.95;2.45;;;5.80;99.90;;;;;;5004254;28;20033;-94
2023/04/01 05:06:06;;;;;;;6.60;2.28;;;5.90;99.90;;;;;;4996682;28;20529;-93
2023/04/01 05:08:32;;;;;;;6.60;2.47;;;5.80;99.90;;;;;;4999058;28;20033;-94
2023/04/01 05:10:58;;;;;;;4.47;2.55;;;5.80;99.90;;;;;;5020294;28;20049;-94
2023/04/01 05:13:24;;;;;;;6.00;2.78;;;5.80;99.90;;;;;;5013949;28;20049;-95
2023/04/01 05:15:50;;;;;;;5.65;2.53;;;5.80;99.90;;;;;;5016248;28;20057;-93
2023/04/01 05:18:16;;;;;;;4.55;2.50;;;5.80;99.90;;;;;;5023778;28;20041;-92
2023/04/01 05:20:50;;;;;;;6.50;2.03;;;5.80;99.90;;;;;;5014045;28;20373;-93
2023/04/01 05:23:16;;;;;;;7.63;1.80;;;5.80;99.90;;;;;;5013908;28;20021;-93
2023/04/01 05:25:43;;;;;;;8.93;2.53;;;5.80;99.90;;;;;;5013199;28;20030;-92
2023/04/01 05:28:10;;;;;;;4.70;2.90;;;5.80;99.90;;;;;;5008288;28;20113;-95
2023/04/01 05:30:36;;;;;;;7.10;3.13;;;5.80;99.90;;;;;;5003561;28;20399;-93
2023/04/01 05:33:02;;;;;;;9.23;3.20;;;5.80;99.90;;;;;;5001246;28;20028;-95
2023/04/01 05:35:29;;;;;;;8.20;3.35;;;5.80;99.90;;;;;;4999103;28;20057;-93
2023/04/01 05:37:54;;;;;;;7.95;3.60;;;5.70;99.90;;;;;;5001439;28;20042;-93
2023/04/01 05:40:20;;;;;;;6.43;2.97;;;5.70;99.90;;;;;;5003765;28;20050;-93
2023/04/01 05:42:46;;;;;;;4.68;2.22;;;5.70;99.90;;;;;;5004066;28;20593;-95
2023/04/01 05:45:15;;;;;;;9.57;2.88;;;5.80;99.90;;;;;;5000680;28;20017;-93
2023/04/01 05:47:41;;;;;;;9.07;2.50;;;5.70;99.90;;;;;;5001469;28;20034;-94
2023/04/01 05:50:10;;;;;;;5.78;2.17;;;5.70;99.90;;;;;;5001202;28;20209;-93
2023/04/01 05:52:36;;;;;;;5.03;1.77;;;5.70;99.90;;;;;;4999289;28;20041;-95
2023/04/01 05:55:03;;;;;;;4.53;2.10;;;5.70;99.90;;;;;;4998380;28;20032;-96
2023/04/01 05:57:29;;;;;;;6.30;1.88;;;5.70;99.90;;;;;;4998117;28;20129;-94
2023/04/01 05:59:54;;;;;;;3.53;2.00;;;5.70;99.90;;;;;;4994168;28;20050;-93
2023/04/01 06:02:20;;;;;;;4.38;1.98;;;5.70;99.90;;;;;;4995747;28;20026;-94
2023/04/01 06:04:46;;;;;;;2.72;1.73;;;5.70;99.90;;;;;;4998985;28;20041;-94
2023/04/01 06:07:14;;;;;;;3.35;1.63;;;5.60;99.90;;;;;;5003284;28;20030;-94
2023/04/01 06:09:44;;;;;;;3.90;1.55;;;5.60;99.90;;;;;;5005299;28;20030;-94
2023/04/01 06:12:37;;;;;;;3.53;1.20;;;5.60;99.90;;;;;;4999927;28;20030;-94
2023/04/01 06:15:19;;;;;;;5.40;1.15;;;5.70;99.90;;;;;;4997845;28;20200;-95
2023/04/01 06:18:12;;;;;;;4.93;1.05;;;5.70;99.90;;;;;;5006423;28;20045;-94
2023/04/01 06:20:43;;;;;;;5.38;2.78;;;5.70;99.90;;;;;;5002401;28;20495;-95
2023/04/01 06:23:34;;;;;;;5.85;1.38;;;5.70;99.90;;;;;;5002173;28;20040;-94
2023/04/01 06:26:00;;;;;;;6.25;2.13;;;5.80;99.90;;;;;;5002550;28;20037;-96
2023/04/01 06:29:03;;;;;;;3.92;0.95;;;5.80;99.90;;;;;;5010792;28;20037;-94
2023/04/01 06:31:55;;;;;;;4.35;1.05;;;5.80;99.90;;;;;;5024606;28;20030;-94
2023/04/01 06:34:50;;;;;;;2.80;1.40;;;5.80;99.90;;;;;;4982686;28;20032;-94
2023/04/01 06:37:37;;;;;;;6.15;1.63;;;5.90;99.90;;;;;;5021294;28;20036;-93
2023/04/01 06:40:23;;;;;;;4.35;1.75;;;5.90;99.90;;;;;;5002298;28;20010;-93
2023/04/01 06:43:05;;;;;;;6.43;1.58;;;5.90;99.90;;;;;;5002320;28;20030;-92
2023/04/01 06:45:46;;;;;;;2.08;1.55;;;5.90;99.90;;;;;;5025197;28;20033;-94
2023/04/01 06:48:33;;;;;;;7.18;2.08;;;5.90;99.90;;;;;;5020342;28;20018;-94
2023/04/01 06:51:14;;;;;;;6.50;1.52;;;5.90;99.90;;;;;;5032860;28;20042;-95
2023/04/01 06:53:49;;;;;;;6.45;2.00;;;5.90;99.90;;;;;;5027161;28;20128;-94
2023/04/01 06:56:18;;;;;;;3.47;1.67;;;6.00;99.90;;;;;;5017734;28;20030;-95
2023/04/01 06:58:51;;;;;;;4.75;2.22;;;6.00;99.90;;;;;;5017620;28;20038;-93
2023/04/01 07:01:22;;;;;;;3.70;1.60;;;6.00;99.90;;;;;;5031626;28;20049;-93
2023/04/01 07:03:50;;;;;;;5.20;1.52;;;6.10;99.90;;;;;;5013599;28;20041;-94
2023/04/01 07:06:36;;;;;;;4.45;1.70;;;6.10;99.90;;;;;;5012578;28;20065;-93
2023/04/01 07:09:09;;;;;;;2.88;1.40;;;6.10;99.90;;;;;;5011613;28;20025;-95
2023/04/01 07:11:38;;;;;;;3.15;1.60;;;6.10;99.90;;;;;;5008928;28;20046;-93
2023/04/01 07:14:32;;;;;;;4.03;1.60;;;6.10;99.90;;;;;;5015753;28;20044;-91
2023/04/01 07:17:11;;;;;;;4.95;1.80;;;6.20;99.90;;;;;;5015944;28;20100;-90
2023/04/01 07:20:04;;;;;;;6.40;1.33;;;6.20;99.90;;;;;;5018302;28;20086;-92
2023/04/01 07:22:44;;;;;;;10.85;1.70;;;6.30;99.90;;;;;;5016655;28;20066;-91
2023/04/01 07:25:30;;;;;;;3.10;1.05;;;6.40;99.90;;;;;;5023008;28;20031;-93
2023/04/01 07:28:13;;;;;;;4.32;1.40;;;6.40;99.90;;;;;;5018420;28;20014;-91
2023/04/01 07:30:57;;;;;;;4.53;1.15;;;6.50;99.90;;;;;;5008344;28;20038;-92
2023/04/01 07:33:51;;;;;;;3.38;1.30;;;6.40;99.90;;;;;;5018258;28;20022;-93
2023/04/01 07:36:28;;;;;;;1.30;1.20;;;6.40;99.90;;;;;;5046427;28;20033;-95
2023/04/01 07:39:21;;;;;;;7.35;1.67;;;6.40;99.90;;;;;;4997693;28;20049;-95
2023/04/01 07:42:10;;;;;;;4.00;1.40;;;6.40;99.90;;;;;;5002604;28;20049;-95
2023/04/01 07:45:05;;;;;;;3.63;1.52;;;6.40;99.90;;;;;;4987432;28;20038;-93
2023/04/01 07:47:50;;;;;;;4.63;1.38;;;6.50;99.90;;;;;;5000275;28;20033;-92
2023/04/01 07:50:31;;;;;;;4.25;1.50;;;6.50;99.90;;;;;;5006965;28;20053;-93
2023/04/01 07:52:59;;;;;;;5.72;2.00;;;6.60;99.90;;;;;;5009423;28;20021;-94
2023/04/01 07:55:53;;;;;;;7.03;2.00;;;6.60;99.90;;;;;;5010531;28;20049;-93
2023/04/01 07:58:38;;;;;;;3.28;1.38;;;6.60;99.90;;;;;;5003897;28;20049;-92
2023/04/01 08:01:23;;;;;;;1.92;1.60;;;6.60;99.90;;;;;;5014300;28;20029;-91
2023/04/01 08:03:57;;;;;;;6.00;1.70;;;6.60;99.90;;;;;;5000941;28;20041;-93
2023/04/01 08:07:05;;;;;;;4.88;1.27;;;6.60;99.90;;;;;;5009517;28;20045;-94
2023/04/01 08:09:36;;;;;;;5.05;1.95;;;6.60;99.90;;;;;;5019603;28;20033;-92
2023/04/01 08:12:31;;;;;;;3.47;1.38;;;6.60;99.90;;;;;;5014228;28;20044;-94
2023/04/01 08:15:21;;;;;;;4.03;1.80;;;6.60;99.90;;;;;;5008148;28;20125;-94
2023/04/01 08:17:59;;;;;;;5.35;2.08;;;6.60;99.90;;;;;;5018185;28;20034;-95
2023/04/01 08:20:40;;;;;;;3.42;1.55;;;6.60;99.90;;;;;;5022613;28;20016;-96
2023/04/01 08:23:25;;;;;;;;;;;6.60;99.90;;;;;;5022753;28;20064;-94
2023/04/01 08:26:20;;;;;;;3.33;1.58;;;6.70;99.90;;;;;;5009851;28;19937;-94
2023/04/01 08:29:15;;;;;;;6.53;1.98;;;6.70;99.90;;;;;;4971933;28;20052;-95
2023/04/01 08:32:08;;;;;;;7.80;3.05;;;6.70;99.90;;;;;;4996193;28;20032;-94
2023/04/01 08:34:38;;;;;;;5.22;2.10;;;6.70;99.90;;;;;;4999103;28;20030;-89
2023/04/01 08:37:13;;;;;;;4.13;2.00;;;6.70;99.90;;;;;;4998851;28;20526;-89
2023/04/01 08:39:47;;;;;;;5.20;2.10;;;6.70;99.90;;;;;;4998993;28;20057;-90
2023/04/01 08:42:54;;;;;;;6.63;2.05;;;6.60;99.90;;;;;;4999010;28;20065;-89
2023/04/01 08:45:28;;;;;;;2.45;1.40;;;6.70;99.90;;;;;;4955727;28;20037;-89
2023/04/01 08:48:31;;;;;;;4.97;1.75;;;6.70;99.90;;;;;;4998860;28;20029;-90
2023/04/01 08:51:15;;;;;;;3.47;1.50;;;6.70;99.90;;;;;;4997645;28;20025;-89
2023/04/01 08:54:02;;;;;;;2.53;1.60;;;6.70;99.90;;;;;;4996827;28;20029;-91
2023/04/01 08:57:03;;;;;;;5.38;1.77;;;6.70;99.90;;;;;;4996622;28;20033;-90
2023/04/01 08:59:29;;;;;;;;;;;6.70;99.90;;;;;;4980073;28;20049;-90
2023/04/01 09:02:17;;;;;;;3.47;1.70;;;6.80;99.90;;;;;;4996378;28;19906;-90
2023/04/01 09:05:02;;;;;;;4.95;1.77;;;6.80;99.90;;;;;;4996593;28;20030;-89
2023/04/01 09:07:33;;;;;;;4.55;1.90;;;6.90;99.90;;;;;;4998023;28;20098;-90
2023/04/01 09:10:19;;;;;;;4.03;2.00;;;6.90;99.90;;;;;;4989987;28;20047;-89
2023/04/01 09:13:07;;;;;;;4.00;2.13;;;6.90;99.90;;;;;;4918621;28;20042;-89
2023/04/01 09:16:10;;;;;;;6.30;2.50;;;7.00;99.90;;;;;;4977357;28;20031;-89
2023/04/01 09:19:17;;;;;;;4.70;1.95;;;7.10;99.90;;;;;;4976667;28;20034;-90
2023/04/01 09:22:00;;;;;;;6.88;2.22;;;7.10;99.90;;;;;;4871709;29;20123;-90
2023/04/01 09:24:46;;;;;;;2.28;1.67;;;7.20;99.90;;;;;;4887575;29;20040;-91
2023/04/01 09:27:28;;;;;;;2.50;1.52;;;7.20;99.90;;;;;;4869022;29;20025;-89
2023/04/01 09:30:41;;;;;;;4.13;1.83;;;7.30;99.90;;;;;;4868297;29;20032;-89
2023/04/01 09:33:25;;;;;;;1.98;1.38;;;7.30;99.90;;;;;;4789854;29;20046;-90
2023/04/01 09:36:21;;;;;;;1.58;1.25;;;7.40;99.90;;;;;;4790618;29;20153;-90
2023/04/01 09:38:52;;;;;;;1.98;1.23;;;7.50;99.90;;;;;;4790178;29;20046;-90
2023/04/01 09:41:57;;;;;;;3.17;1.35;;;7.60;99.90;;;;;;4790815;29;20114;-90
2023/04/01 09:44:43;;;;;;;2.28;0.93;;;7.60;99.90;;;;;;4790150;29;20043;-90
2023/04/01 09:47:17;;;;;;;5.30;1.08;;;7.70;99.90;;;;;;4805691;29;20077;-91
2023/04/01 09:50:16;;;;;;;1.58;1.00;;;7.70;99.90;;;;;;4790777;29;20039;-89
2023/04/01 09:53:10;;;;;;;1.58;0.95;;;7.80;99.90;;;;;;4790567;29;20128;-88
2023/04/01 09:56:03;;;;;;;1.33;1.00;;;7.80;99.90;;;;;;4793076;29;20049;-90
2023/04/01 09:59:26;;;;;;;2.05;0.95;;;7.80;99.90;;;;;;4871718;29;20172;-88
2023/04/01 10:02:30;;;;;;;2.17;1.02;;;7.80;99.90;;;;;;4841753;29;20062;-89
2023/04/01 10:05:33;;;;;;;1.30;0.70;;;7.80;99.90;;;;;;4815218;29;20057;-88
2023/04/01 10:08:22;;;;;;;1.35;0.95;;;7.90;99.90;;;;;;4826897;29;20106;-89
2023/04/01 10:11:02;;;;;;;4.07;1.00;;;7.90;99.90;;;;;;4900705;29;20048;-88
2023/04/01 10:14:05;;;;;;;2.30;0.90;;;7.90;99.90;;;;;;4900567;29;20036;-91
2023/04/01 10:17:15;;;;;;;2.03;0.80;;;8.00;99.90;;;;;;4901003;29;20119;-88
2023/04/01 10:20:18;;;;;;;1.30;0.90;;;8.00;99.90;;;;;;4856975;29;20582;-88
2023/04/01 10:23:13;;;;;;;1.83;1.00;;;8.00;99.90;;;;;;4900062;29;20056;-89
2023/04/01 10:25:42;;;;;;;1.08;0.80;;;8.00;99.90;;;;;;4899819;29;20036;-89
2023/04/01 10:28:28;;;;;;;2.33;1.00;;;8.00;99.90;;;;;;4899799;29;20024;-89
2023/04/01 10:31:03;;;;;;;3.10;1.90;;;8.00;99.90;;;;;;4900025;29;20095;-89
2023/04/01 10:34:00;;;;;;;3.90;0.90;;;8.00;99.90;;;;;;4961997;28;20039;-88
2023/04/01 10:36:43;;;;;;;3.05;0.90;;;8.00;99.90;;;;;;4956500;28;20026;-89
2023/04/01 10:39:32;;;;;;;1.08;0.60;;;8.00;99.90;;;;;;4965522;28;20042;-88
2023/04/01 10:42:16;;;;;;;1.80;0.70;;;8.00;99.90;;;;;;4958090;28;20029;-88
2023/04/01 10:44:57;;;;;;;1.15;0.80;;;8.00;99.90;;;;;;4957895;28;20042;-89
2023/04/01 10:47:53;;;;;;;1.10;0.60;;;8.00;99.90;;;;;;4974518;28;20031;-90
2023/04/01 10:50:40;;;;;;;4.22;0.75;;;8.10;99.90;;;;;;4958495;28;20379;-90
2023/04/01 10:53:24;;;;;;;2.78;0.77;;;8.10;99.90;;;;;;4958231;28;20031;-90
2023/04/01 10:56:30;;;;;;;1.25;0.68;;;8.10;99.90;;;;;;4974858;28;20089;-89
2023/04/01 10:59:21;;;;;;;0.82;0.50;;;8.10;99.90;;;;;;4958230;28;20031;-90
2023/04/01 11:02:11;;;;;;;1.35;0.80;;;8.10;99.90;;;;;;4957515;28;20023;-90
2023/04/01 11:04:51;;;;;;;2.08;0.80;;;8.10;99.90;;;;;;4957559;28;20181;-90
2023/04/01 11:07:57;;;;;;;3.58;1.35;;;8.10;99.90;;;;;;4974696;28;20023;-90
2023/04/01 11:11:09;;;;;;;2.97;0.90;;;8.00;99.90;;;;;;4868910;29;20093;-90
2023/04/01 11:14:07;;;;;;;2.03;0.70;;;8.00;99.90;;;;;;4840807;29;20037;-90
2023/04/01 11:16:50;;;;;;;2.25;1.00;;;7.90;99.90;;;;;;4844143;29;20036;-90
2023/04/01 11:19:25;;;;;;;4.63;0.73;;;7.90;99.90;;;;;;4844625;29;20053;-91
2023/04/01 11:22:27;;;;;;;1.58;0.90;;;7.90;99.90;;;;;;4844358;29;20086;-90
2023/04/01 11:25:17;;;;;;;3.03;0.90;;;8.00;99.90;;;;;;4844275;29;20045;-90
2023/04/01 11:28:20;;;;;;;3.03;0.93;;;8.00;99.90;;;;;;4844849;29;20441;-90
2023/04/01 11:31:15;;;;;;;1.10;0.60;;;8.10;99.90;;;;;;4849720;29;20042;-87
2023/04/01 11:33:50;;;;;;;1.80;0.90;;;8.10;99.90;;;;;;4844743;29;20049;-90
2023/04/01 11:36:34;;;;;;;3.17;0.90;;;8.20;99.90;;;;;;4845170;29;20025;-89
2023/04/01 11:39:23;;;;;;;2.20;1.25;;;8.20;99.90;;;;;;4846843;29;20068;-91
2023/04/01 11:42:15;;;;;;;1.88;0.90;;;8.20;99.90;;;;;;4863271;29;20124;-89
2023/04/01 11:44:53;;;;;;;1.33;1.00;;;8.20;99.90;;;;;;4841959;29;20152;-90
2023/04/01 11:47:41;;;;;;;1.38;0.80;;;8.30;99.90;;;;;;4945446;29;20048;-89
2023/04/01 11:50:28;;;;;;;3.25;0.90;;;8.30;99.90;;;;;;4979420;28;20039;-90
2023/04/01 11:53:00;;;;;;;2.25;1.00;;;8.30;99.90;;;;;;4998302;28;20073;-90
2023/04/01 11:55:38;;;;;;;2.33;1.08;;;8.40;99.90;;;;;;4995456;28;20436;-89
2023/04/01 11:58:22;;;;;;;1.83;0.82;;;8.50;99.90;;;;;;4998595;28;20503;-89
2023/04/01 12:00:53;;;;;;;0.93;0.70;;;8.60;99.90;;;;;;4997877;28;20077;-89
2023/04/01 12:03:51;;;;;;;2.33;0.98;;;8.60;99.90;;;;;;4996742;28;20038;-89
2023/04/01 12:06:20;;;;;;;1.17;1.08;;;8.60;99.90;;;;;;4990671;28;20042;-89
2023/04/01 12:09:04;;;;;;;2.78;1.40;;;8.60;99.90;;;;;;4996016;28;20507;-89
2023/04/01 12:11:39;;;;;;;1.83;0.88;;;8.60;99.90;;;;;;4979753;28;20043;-90
2023/04/01 12:14:19;;;;;;;1.50;0.80;;;8.50;99.90;;;;;;4976936;28;20058;-90
2023/04/01 12:16:48;;;;;;;1.50;1.00;;;8.50;99.90;;;;;;4976800;28;20579;-89
2023/04/01 12:19:28;;;;;;;1.23;0.88;;;8.50;99.90;;;;;;4960618;28;20041;-90
2023/04/01 12:22:31;;;;;;;1.35;0.75;;;8.60;99.90;;;;;;4977613;28;20023;-89
2023/04/01 12:25:06;;;;;;;1.33;0.73;;;8.60;99.90;;;;;;4960334;28;20396;-89
2023/04/01 12:27:43;;;;;;;1.05;0.65;;;8.60;99.90;;;;;;4977047;28;20039;-89
2023/04/01 12:30:18;;;;;;;1.38;0.90;;;8.70;99.90;;;;;;4976440;28;20035;-89
2023/04/01 12:33:23;;;;;;;4.80;0.63;;;8.70;99.90;;;;;;4976618;28;20022;-89
2023/04/01 12:36:23;;;;;;;0.80;0.60;;;8.70;99.90;;;;;;4956576;28;20174;-89
2023/04/01 12:39:22;;;;;;;1.03;0.83;;;8.80;99.90;;;;;;4938605;28;20464;-90
2023/04/01 12:41:55;;;;;;;2.42;1.02;;;8.80;99.90;;;;;;4974981;28;20349;-88
2023/04/01 12:44:35;;;;;;;2.55;0.57;;;8.80;99.90;;;;;;4960277;28;20129;-90
2023/04/01 12:47:12;;;;;;;1.55;0.70;;;8.80;99.90;;;;;;4960401;28;20030;-90
2023/04/01 12:49:53;;;;;;;0.80;0.68;;;8.70;99.90;;;;;;4976051;28;20023;-89
2023/04/01 12:52:39;;;;;;;;;;;8.70;99.90;;;;;;4960200;28;20030;-89
2023/04/01 12:55:23;;;;;;;1.02;0.70;;;8.60;99.90;;;;;;4946551;28;19910;-89
2023/04/01 12:58:26;;;;;;;3.95;1.75;;;8.60;99.90;;;;;;4975782;28;20043;-88
2023/04/01 13:01:04;;;;;;;6.07;2.47;;;8.50;99.90;;;;;;4959771;28;20034;-88
2023/04/01 13:03:44;;;;;;;7.15;2.70;;;8.50;99.90;;;;;;4959274;28;20062;-88
2023/04/01 13:06:10;;;;;;;;;;;8.40;99.90;;;;;;4959020;28;20055;-89
2023/04/01 13:09:00;;;;;;;3.45;1.30;;;8.40;99.90;;;;;;4974251;28;19941;-90
2023/04/01 13:11:44;;;;;;;6.40;1.50;;;8.30;99.90;;;;;;5008146;28;20049;-88
2023/04/01 13:14:35;;;;;;;2.35;1.20;;;8.40;99.90;;;;;;4997944;28;20035;-89
2023/04/01 13:17:27;;;;;;;2.10;1.20;;;8.40;99.90;;;;;;4998232;28;20037;-89
2023/04/01 13:20:13;;;;;;;3.55;1.10;;;8.50;99.90;;;;;;4998194;28;20599;-88
2023/04/01 13:23:01;;;;;;;5.60;1.05;;;8.50;99.90;;;;;;4997862;28;20328;-88
2023/04/01 13:25:41;;;;;;;1.42;1.00;;;8.60;99.90;;;;;;5001961;28;20029;-90
2023/04/01 13:28:19;;;;;;;;;;;8.70;99.90;;;;;;5005115;28;20033;-87
2023/04/01 13:30:57;;;;;;;2.63;1.10;;;8.90;99.90;;;;;;5004751;28;19909;-88
2023/04/01 13:33:32;;;;;;;2.08;0.80;;;9.00;99.90;;;;;;5005123;28;20057;-89
2023/04/01 13:36:04;;;;;;;2.35;1.02;;;9.10;99.90;;;;;;5000786;28;20025;-88
2023/04/01 13:38:48;;;;;;;1.50;0.80;;;9.10;99.90;;;;;;5001821;28;20040;-88
2023/04/01 13:41:41;;;;;;;2.53;1.08;;;9.20;99.90;;;;;;4998738;28;20029;-88
2023/04/01 13:44:18;;;;;;;2.40;1.10;;;9.10;99.90;;;;;;4997517;28;20082;-88
2023/04/01 13:47:13;;;;;;;3.92;1.05;;;9.10;99.90;;;;;;4997608;28;20026;-89
2023/04/01 13:49:48;;;;;;;1.10;1.00;;;9.00;99.90;;;;;;4997706;28;20030;-89
2023/04/01 13:52:35;;;;;;;2.88;1.10;;;9.00;99.90;;;;;;4997505;28;20163;-90
2023/04/01 13:55:15;;;;;;;1.55;0.82;;;8.90;99.90;;;;;;4997806;28;20018;-90